Murray, UT

7:54 AM MDT on October 24, 2014 (GMT -0600)
Walden Meadows | Change Station
CLOSE
Current Station
Personal Weather Station
Location: Murray, UT
Elevation: 4278 ft
Nearby Weather Stations
Active Advisory: Special Statement

Elev 4278 ft 40.65 °N, 111.92 °W | Updated 2 seconds ago

Clear
Clear
42.4 °F
Feels Like 42 °F
N
0.0
Wind Variable Wind from NNW
Gusts 0.0 mph

Today
High -- | Low -- °F
--% Chance of Precip.
Yesterday
High -- | Low -- °F
Precip. -- in
7:48 AM 6:34 PM
New Moon, 0% visible
Pressure 30.08 in
Visibility 10.0 miles
Clouds Few 20000 ft
Windchill 42 °F
Dew Point 38 °F
Humidity 86%
Rainfall 0.00 in
Snow Depth 0 in , 0 in , 0 in
UV 0.0 out of 12
Pollen 1.80 out of 12
PM2.5 Good
Flu Activity Sporadic
METAR KSLC 241253Z 34004KT 10SM FEW200 07/04 A3014 RMK AO2 SLP185 T00720044

More Conditions Fewer Conditions

Pressure 30.08 in
Visibility 10.0 miles
Clouds Few 20000 ft
Windchill 42 °F
Dew Point 38 °F
Humidity 86%
Rainfall 0.00 in
Snow Depth 0 in , 0 in , 0 in
UV 0.0 out of 12
Pollen 1.80 out of 12
PM2.5 Good
Flu Activity Sporadic
METAR KSLC 241253Z 34004KT 10SM FEW200 07/04 A3014 RMK AO2 SLP185 T00720044

More Conditions Fewer Conditions

10-Day Weather Forecast

Almanac

Astronomy

Oct. 24, 2014 Rise Set
Actual Time 7:48 AM MDT 6:34 PM MDT
Civil Twilight 7:20 AM MDT 7:02 PM MDT
Nautical Twilight 6:48 AM MDT 7:33 PM MDT
Astronomical Twilight 6:17 AM MDT 8:05 PM MDT
Moon 8:31 AM MDT 7:16 PM MDT
Length of Visible Light 11h 41m
Length of Day
10h 45m
Tomorrow will be 2m 30s shorter.
New Moon, 0% of the Moon is Illuminated
Today
New Moon
Oct 30
First Quarter
Nov 6
Full
Nov 14
Last Quarter
Nov 22
New

Today's Extremes

State Highs State Lows

Community

WunderPhotos

Upload Photos

1,764,551 photos uploaded!

WunderBlogs® & News

By Dr. Jeff Masters
Director of Meteorology, Weather Underground
By Kari Strenfel
Meteorologist, Weather Underground
By Christopher C. Burt
Weather Historian, Weather Underground
October 24, 2014
October 24, 2014
October 24, 2014

Nearby

Air Quality

  Air Quality AQ Index Pollutant
Yesterday Good
OZONE
Yesterday Good
PM2.5
Current Good
PM2.5
Friday Good
OZONE
Saturday Good
OZONE

Snow Depth

Station Depth Elevation
Mill-d North 0 in 8960 ft
Louis Meadow 0 in 6700 ft
Snowbird 0 in 9640 ft
Brighton 0 in 8750 ft
Lookout Peak 0 in 8200 ft

Earthquake Activity

City Distance Mag. Time & Date
Ferron, Utah 119 miles 2.5 10:53 PM MDT
2014-10-21
Minimum magnitude displayed is 2.5.

Coastal Water Temperatures

Place Temperature
No Stations Reporting

Nearby Weather Stations